KNUCKNXP

Guest
Details From KNUC - San Clemente Island Nalf
To KNXP - TWENTYNINE PALMS EAF
Flight Number -
Tags generated
Created
Modified
Stats Distance 143 nm / 266 km
Max Altitude 11,700 ft / 3,566 m
Waypoints 3
Social Downloads 8
Likes 0
Share VATSIM

Download

Looking for another format? Having issues loading an existing format? Contact us
Advertisement - Login to hide

Notes

Basic altitude profile: - Ascent Rate: 2500ft/min - Ascent Speed: 250kts - Cruise Altitude: 35000ft - Cruise Speed: 420kts - Descent Rate: 1500ft/min - Descent Speed: 250kts Options: - Use NATs: yes - Use PACOTS: yes - Use low airways: yes - Use high airways: yes

Route

KNUC HDF KNXP

ID Type Via Altitude Latitude Longitude Leg Dist Tot Dist Heading (true) Name
O KNUC APT - 0 ft / 0 m 33.02274˚ -118.58849˚ - 0 nm - San Clemente Island Nalf
HDF VOR - 11,700 ft / 3,566 m 33.77633˚ -117.18533˚ 83 nm 83 nm 57° / 58° HOMELAND VOR
O KNXP APT - 0 ft / 0 m 34.29611˚ -116.16210˚ 59 nm 143 nm 58° / 59° TWENTYNINE PALMS EAF

Altitude Profile

Advertisement - Login to hide

KNUC

Details ICAO KNUC
Name San Clemente Island Nalf
Region United States
Timezone America/Los_Angeles (UTC-8.0)
Stats Elevation 182 ft / 55 m (AMSL)
Location 33.022745° -118.588487°
Runways 1
Magnetic Variation 11.861° E

METAR

KNUC 132256Z 27003KT 10SM FEW250 22/09 A2996 RMK SLP143 T02170089

Decode

TAF

TAF KNUC 1315/1415 27008KT 9999 SKC QNH2994INS FM140400 VRB05KT 9000 BR FEW250 QNH2996INS TEMPO 1409/1415 VRB05KT 3200 BR FEW250 T21/1321Z T13/1414Z FS30020

Decode

Departure Runways

ID Width Length Bearing (true) Bearing (mag) Surface Threshold Offset Overrun Length
05 200 ft / 61 m 9,290 ft / 2,832 m 67.19° 55.33° Concrete 0 ft / 0 m 0 ft / 0 m
23 200 ft / 61 m 9,290 ft / 2,832 m 247.20° 235.34° Concrete 0 ft / 0 m 0 ft / 0 m

KNXP

Details ICAO KNXP (NXP)
Name TWENTYNINE PALMS EAF
Region United States
Timezone America/Los_Angeles (UTC-8.0)
Stats Elevation 2,051 ft / 625 m (AMSL)
Location 34.296110° -116.162096°
Runways 1
Magnetic Variation 11.585° E

METAR

KNXP 132256Z 02007KT 10SM CLR 24/M21 A3006 RMK AO2 SLP156 T02391211

Decode

TAF

TAF KNXP 1321/1421 VRB05KT 9999 FEW150 QNH3003INS BECMG 1404/1406 31009KT 9999 FEW250 QNH3005INS TEMPO 1406/1412 VRB05KT FM141430 30015KT 9999 FEW250 QNH3013INS TEMPO 1415/1421 36020G30KT T24/1322Z T07/1414Z

Decode

Destination Runways

ID Width Length Bearing (true) Bearing (mag) Surface Threshold Offset Overrun Length
10 150 ft / 46 m 8,006 ft / 2,440 m 112.39° 100.80° Dirt 0 ft / 0 m 0 ft / 0 m
28 150 ft / 46 m 8,006 ft / 2,440 m 292.40° 280.81° Dirt 0 ft / 0 m 0 ft / 0 m